Evelyn Doris — WDD5558 — position and weather

sailwx.info

Track history (hours):
 
Tides and Currents Weather Stations Pressure Air Temp Water Temp Dewpoint Dewpoint Depression Visibility Wind Speed Wind Dir Waves Ship Positions

Evelyn Doris

Owner: Intracoastal Marine, Inc., Coinjock, NC. More information available from US FCC via Universal Licensing System and Coast Guard Vessel Documentation Center.

Last reported at 2017-Oct-18 19:11 UTC. Time now 2017-Oct-19 08:53 UTC.
Position N 36°43' W 076°14'.

Length 19 m; draft 3.3 m.

Type: Tug. MMSI: 367160060.

Date/timePositionNaut miles runAvg speedWind from/ knotsBaromVisibWave heightAir tempDewpointWater temp
2017-Oct-18 19:11N 36°43' W 076°14'1 3.6
2017-Oct-18 18:59N 36°43' W 076°15'0 0.2
2017-Oct-18 18:31N 36°43' W 076°15'0 0.6
2017-Oct-18 17:59N 36°44' W 076°15'2 3.9
2017-Oct-18 17:30N 36°44' W 076°18'2 3.8
2017-Oct-18 17:00N 36°46' W 076°18'0 0.0
2017-Oct-18 16:30N 36°46' W 076°18'0 0.0
2017-Oct-18 15:55N 36°46' W 076°18'1 2.0
2017-Oct-18 15:30N 36°47' W 076°18'2 4.0
2017-Oct-18 14:59N 36°49' W 076°17'0 0.0
2017-Oct-18 14:00N 36°49' W 076°17'0 0.0
2017-Oct-18 13:26N 36°49' W 076°17'2 3.8
2017-Oct-18 12:58N 36°50' W 076°18'1 1.6
2017-Oct-18 12:21N 36°50' W 076°16'0 0.1
2017-Oct-18 12:00N 36°50' W 076°16'1 2.7
2017-Oct-18 11:28N 36°49' W 076°17'1 1.4
2017-Oct-18 10:59N 36°49' W 076°17'0 0.0
2017-Oct-18 10:30N 36°49' W 076°17'0 0.0
2017-Oct-18 09:50N 36°49' W 076°17'0 0.0
2017-Oct-18 09:13N 36°49' W 076°17'0 0.0
2017-Oct-18 08:57N 36°49' W 076°17'0 0.0
2017-Oct-18 08:22N 36°49' W 076°17'0 0.0
2017-Oct-18 07:55N 36°49' W 076°17'0 0.0
2017-Oct-18 07:30N 36°49' W 076°17'0 0.0
2017-Oct-18 07:00N 36°49' W 076°17'0 0.0
2017-Oct-18 06:30N 36°49' W 076°17'0 0.0
2017-Oct-18 06:00N 36°49' W 076°17'0 0.0
2017-Oct-18 05:26N 36°49' W 076°17'0 0.0
2017-Oct-18 04:59N 36°49' W 076°17'0 0.0
2017-Oct-18 04:28N 36°49' W 076°17'0 0.0
2017-Oct-18 03:54N 36°49' W 076°17'0 0.0
2017-Oct-18 02:35N 36°49' W 076°17'0 0.0
2017-Oct-18 02:16N 36°48' W 076°17'0 0.0
2017-Oct-18 02:00N 36°49' W 076°17'4 1.1
2017-Oct-17 22:45N 36°52' W 076°19'2 6.0
2017-Oct-17 22:27N 36°50' W 076°18'2 3.0
2017-Oct-17 21:45N 36°48' W 076°17'1 3.8
2017-Oct-17 21:24N 36°47' W 076°18'1 0.9
2017-Oct-17 20:23N 36°46' W 076°18'0 1.2
2017-Oct-17 20:00N 36°46' W 076°18'1 0.8
2017-Oct-17 18:41N 36°45' W 076°18'2 4.1
2017-Oct-17 18:16N 36°47' W 076°18'2 4.8
2017-Oct-17 17:55N 36°48' W 076°17'1 0.5
2017-Oct-17 15:16N 36°49' W 076°18'1 3.8
2017-Oct-17 14:55N 36°50' W 076°16'1 2.2
2017-Oct-17 14:22N 36°50' W 076°15'0 0.0
2017-Oct-17 13:18N 36°50' W 076°15'0 0.0
2017-Oct-17 12:58N 36°50' W 076°15'3 0.2
2017-Oct-16 20:03N 36°48' W 076°17'0 0.1
2017-Oct-16 20:01N 36°48' W 076°17'0 0.0
2017-Oct-16 19:31N 36°49' W 076°17'0 0.0
2017-Oct-16 19:01N 36°49' W 076°17'1 1.8
2017-Oct-16 18:31N 36°48' W 076°18'1 1.2
2017-Oct-16 18:01N 36°48' W 076°17'2 3.3
2017-Oct-16 17:31N 36°50' W 076°18'1 3.0
2017-Oct-16 17:01N 36°51' W 076°18'2 3.0
2017-Oct-16 16:30N 36°52' W 076°20'1 1.0
2017-Oct-16 16:01N 36°53' W 076°20'0 0.0
2017-Oct-16 15:31N 36°53' W 076°20'1 1.1
2017-Oct-16 15:01N 36°53' W 076°20'0 0.5
2017-Oct-16 14:01N 36°53' W 076°20'2 3.2
2017-Oct-16 13:24N 36°54' W 076°21'2 3.9
2017-Oct-16 12:50N 36°52' W 076°20'3 7.8
2017-Oct-16 12:31N 36°51' W 076°18'  
2017-Oct-13 14:33N 36°49' W 076°17'0 0.0
2017-Oct-13 14:30N 36°49' W 076°17'0 0.0
2017-Oct-12 19:58N 36°48' W 076°17'0 0.0
2017-Oct-12 19:30N 36°48' W 076°17'0 0.0
2017-Oct-12 19:00N 36°48' W 076°17'0 0.0
2017-Oct-12 18:30N 36°48' W 076°17'0 0.0
2017-Oct-12 18:00N 36°48' W 076°17'0 0.0
2017-Oct-12 17:30N 36°48' W 076°17'0 0.0
2017-Oct-12 17:00N 36°48' W 076°17'0 0.0
2017-Oct-12 16:30N 36°49' W 076°17'0 0.0
2017-Oct-12 16:00N 36°48' W 076°17'0 0.0
2017-Oct-12 15:30N 36°48' W 076°17'0 0.0
2017-Oct-12 15:00N 36°48' W 076°17'0 0.0
2017-Oct-12 14:30N 36°48' W 076°17'0 0.0
2017-Oct-12 14:00N 36°48' W 076°17'0 0.0
2017-Oct-12 13:30N 36°48' W 076°17'0 0.0
2017-Oct-12 13:00N 36°48' W 076°17'0 0.0
2017-Oct-12 12:30N 36°48' W 076°17'0 0.0
2017-Oct-12 12:00N 36°48' W 076°17'0 0.0
2017-Oct-12 11:30N 36°48' W 076°17'0 0.0
2017-Oct-12 11:00N 36°48' W 076°17'0 0.0
2017-Oct-12 10:30N 36°48' W 076°17'0 0.0
2017-Oct-12 10:00N 36°48' W 076°17'0 0.0
2017-Oct-12 09:29N 36°48' W 076°17'0 0.0
2017-Oct-12 08:57N 36°48' W 076°17'0 0.0
2017-Oct-12 08:30N 36°48' W 076°17'0 0.0
2017-Oct-12 08:00N 36°48' W 076°17'0 0.0
2017-Oct-12 07:30N 36°48' W 076°17'0 0.0
2017-Oct-12 07:00N 36°48' W 076°17'0 0.0
2017-Oct-12 06:28N 36°48' W 076°17'0 0.0
2017-Oct-12 06:00N 36°48' W 076°17'0 0.0
2017-Oct-11 23:02N 36°49' W 076°17'0 0.2
2017-Oct-11 23:00N 36°48' W 076°17'0 0.0
2017-Oct-11 22:29N 36°48' W 076°17'0 0.0
2017-Oct-11 21:55N 36°48' W 076°17'0 0.0
2017-Oct-11 21:30N 36°48' W 076°17'0 0.0
2017-Oct-11 20:57N 36°49' W 076°17'0 0.0
2017-Oct-11 20:29N 36°48' W 076°17'0 0.0
2017-Oct-11 19:59N 36°48' W 076°17'0 0.0
2017-Oct-11 19:30N 36°49' W 076°17'0 0.0
2017-Oct-11 18:59N 36°48' W 076°17'0 0.0
2017-Oct-11 18:30N 36°48' W 076°17'0 0.0
2017-Oct-11 17:58N 36°48' W 076°17'0 0.0
2017-Oct-11 17:30N 36°48' W 076°17'0 0.0
2017-Oct-11 17:00N 36°49' W 076°17'0 0.0
2017-Oct-10 23:58N 36°48' W 076°17'0 0.0
2017-Oct-10 23:30N 36°48' W 076°17'0 0.0
2017-Oct-10 23:00N 36°49' W 076°17'0 0.0
2017-Oct-10 22:29N 36°49' W 076°17'0 0.0
2017-Oct-10 22:00N 36°48' W 076°17'0 0.0
2017-Oct-10 21:30N 36°48' W 076°17'0 0.0
2017-Oct-10 21:00N 36°48' W 076°17'0 0.0
2017-Oct-10 20:30N 36°48' W 076°17'0 0.0
2017-Oct-10 20:00N 36°48' W 076°17'0 0.0
2017-Oct-10 19:30N 36°48' W 076°17'0 0.0
2017-Oct-10 19:00N 36°48' W 076°17'0 0.0
2017-Oct-10 18:30N 36°48' W 076°17'0 0.0
2017-Oct-10 17:59N 36°48' W 076°17'0 0.0
2017-Oct-10 17:30N 36°48' W 076°17'2 0.1
2017-Oct-09 04:37N 36°47' W 076°18'0 0.1
2017-Oct-09 04:29N 36°47' W 076°18'0 0.9
2017-Oct-09 03:59N 36°46' W 076°18'2 3.2
2017-Oct-09 03:30N 36°45' W 076°18'  
Track history (hours):
 
Tides and Currents Weather Stations Pressure Air Temp Water Temp Dewpoint Dewpoint Depression Visibility Wind Speed Wind Dir Waves Ship Positions

Evelyn Doris

Owner: Intracoastal Marine, Inc., Coinjock, NC. More information available from US FCC via Universal Licensing System and Coast Guard Vessel Documentation Center.

Last reported at 2017-Oct-18 19:11 UTC. Time now 2017-Oct-19 08:53 UTC.
Position N 36°43' W 076°14'.

Length 19 m; draft 3.3 m.

Type: Tug. MMSI: 367160060.

Date/timePositionNaut miles runAvg speedWind from/ knotsBaromVisibWave heightAir tempDewpointWater temp
2017-Oct-18 19:11N 36°43' W 076°14'1 3.6
2017-Oct-18 18:59N 36°43' W 076°15'0 0.2
2017-Oct-18 18:31N 36°43' W 076°15'0 0.6
2017-Oct-18 17:59N 36°44' W 076°15'2 3.9
2017-Oct-18 17:30N 36°44' W 076°18'2 3.8
2017-Oct-18 17:00N 36°46' W 076°18'0 0.0
2017-Oct-18 16:30N 36°46' W 076°18'0 0.0
2017-Oct-18 15:55N 36°46' W 076°18'1 2.0
2017-Oct-18 15:30N 36°47' W 076°18'2 4.0
2017-Oct-18 14:59N 36°49' W 076°17'0 0.0
2017-Oct-18 14:00N 36°49' W 076°17'0 0.0
2017-Oct-18 13:26N 36°49' W 076°17'2 3.8
2017-Oct-18 12:58N 36°50' W 076°18'1 1.6
2017-Oct-18 12:21N 36°50' W 076°16'0 0.1
2017-Oct-18 12:00N 36°50' W 076°16'1 2.7
2017-Oct-18 11:28N 36°49' W 076°17'1 1.4
2017-Oct-18 10:59N 36°49' W 076°17'0 0.0
2017-Oct-18 10:30N 36°49' W 076°17'0 0.0
2017-Oct-18 09:50N 36°49' W 076°17'0 0.0
2017-Oct-18 09:13N 36°49' W 076°17'0 0.0
2017-Oct-18 08:57N 36°49' W 076°17'0 0.0
2017-Oct-18 08:22N 36°49' W 076°17'0 0.0
2017-Oct-18 07:55N 36°49' W 076°17'0 0.0
2017-Oct-18 07:30N 36°49' W 076°17'0 0.0
2017-Oct-18 07:00N 36°49' W 076°17'0 0.0
2017-Oct-18 06:30N 36°49' W 076°17'0 0.0
2017-Oct-18 06:00N 36°49' W 076°17'0 0.0
2017-Oct-18 05:26N 36°49' W 076°17'0 0.0
2017-Oct-18 04:59N 36°49' W 076°17'0 0.0
2017-Oct-18 04:28N 36°49' W 076°17'0 0.0
2017-Oct-18 03:54N 36°49' W 076°17'0 0.0
2017-Oct-18 02:35N 36°49' W 076°17'0 0.0
2017-Oct-18 02:16N 36°48' W 076°17'0 0.0
2017-Oct-18 02:00N 36°49' W 076°17'4 1.1
2017-Oct-17 22:45N 36°52' W 076°19'2 6.0
2017-Oct-17 22:27N 36°50' W 076°18'2 3.0
2017-Oct-17 21:45N 36°48' W 076°17'1 3.8
2017-Oct-17 21:24N 36°47' W 076°18'1 0.9
2017-Oct-17 20:23N 36°46' W 076°18'0 1.2
2017-Oct-17 20:00N 36°46' W 076°18'1 0.8
2017-Oct-17 18:41N 36°45' W 076°18'2 4.1
2017-Oct-17 18:16N 36°47' W 076°18'2 4.8
2017-Oct-17 17:55N 36°48' W 076°17'1 0.5
2017-Oct-17 15:16N 36°49' W 076°18'1 3.8
2017-Oct-17 14:55N 36°50' W 076°16'1 2.2
2017-Oct-17 14:22N 36°50' W 076°15'0 0.0
2017-Oct-17 13:18N 36°50' W 076°15'0 0.0
2017-Oct-17 12:58N 36°50' W 076°15'3 0.2
2017-Oct-16 20:03N 36°48' W 076°17'0 0.1
2017-Oct-16 20:01N 36°48' W 076°17'0 0.0
2017-Oct-16 19:31N 36°49' W 076°17'0 0.0
2017-Oct-16 19:01N 36°49' W 076°17'1 1.8
2017-Oct-16 18:31N 36°48' W 076°18'1 1.2
2017-Oct-16 18:01N 36°48' W 076°17'2 3.3
2017-Oct-16 17:31N 36°50' W 076°18'1 3.0
2017-Oct-16 17:01N 36°51' W 076°18'2 3.0
2017-Oct-16 16:30N 36°52' W 076°20'1 1.0
2017-Oct-16 16:01N 36°53' W 076°20'0 0.0
2017-Oct-16 15:31N 36°53' W 076°20'1 1.1
2017-Oct-16 15:01N 36°53' W 076°20'0 0.5
2017-Oct-16 14:01N 36°53' W 076°20'2 3.2
2017-Oct-16 13:24N 36°54' W 076°21'2 3.9
2017-Oct-16 12:50N 36°52' W 076°20'3 7.8
2017-Oct-16 12:31N 36°51' W 076°18'  
2017-Oct-13 14:33N 36°49' W 076°17'0 0.0
2017-Oct-13 14:30N 36°49' W 076°17'0 0.0
2017-Oct-12 19:58N 36°48' W 076°17'0 0.0
2017-Oct-12 19:30N 36°48' W 076°17'0 0.0
2017-Oct-12 19:00N 36°48' W 076°17'0 0.0
2017-Oct-12 18:30N 36°48' W 076°17'0 0.0
2017-Oct-12 18:00N 36°48' W 076°17'0 0.0
2017-Oct-12 17:30N 36°48' W 076°17'0 0.0
2017-Oct-12 17:00N 36°48' W 076°17'0 0.0
2017-Oct-12 16:30N 36°49' W 076°17'0 0.0
2017-Oct-12 16:00N 36°48' W 076°17'0 0.0
2017-Oct-12 15:30N 36°48' W 076°17'0 0.0
2017-Oct-12 15:00N 36°48' W 076°17'0 0.0
2017-Oct-12 14:30N 36°48' W 076°17'0 0.0
2017-Oct-12 14:00N 36°48' W 076°17'0 0.0
2017-Oct-12 13:30N 36°48' W 076°17'0 0.0
2017-Oct-12 13:00N 36°48' W 076°17'0 0.0
2017-Oct-12 12:30N 36°48' W 076°17'0 0.0
2017-Oct-12 12:00N 36°48' W 076°17'0 0.0
2017-Oct-12 11:30N 36°48' W 076°17'0 0.0
2017-Oct-12 11:00N 36°48' W 076°17'0 0.0
2017-Oct-12 10:30N 36°48' W 076°17'0 0.0
2017-Oct-12 10:00N 36°48' W 076°17'0 0.0
2017-Oct-12 09:29N 36°48' W 076°17'0 0.0
2017-Oct-12 08:57N 36°48' W 076°17'0 0.0
2017-Oct-12 08:30N 36°48' W 076°17'0 0.0
2017-Oct-12 08:00N 36°48' W 076°17'0 0.0
2017-Oct-12 07:30N 36°48' W 076°17'0 0.0
2017-Oct-12 07:00N 36°48' W 076°17'0 0.0
2017-Oct-12 06:28N 36°48' W 076°17'0 0.0
2017-Oct-12 06:00N 36°48' W 076°17'0 0.0
2017-Oct-11 23:02N 36°49' W 076°17'0 0.2
2017-Oct-11 23:00N 36°48' W 076°17'0 0.0
2017-Oct-11 22:29N 36°48' W 076°17'0 0.0
2017-Oct-11 21:55N 36°48' W 076°17'0 0.0
2017-Oct-11 21:30N 36°48' W 076°17'0 0.0
2017-Oct-11 20:57N 36°49' W 076°17'0 0.0
2017-Oct-11 20:29N 36°48' W 076°17'0 0.0
2017-Oct-11 19:59N 36°48' W 076°17'0 0.0
2017-Oct-11 19:30N 36°49' W 076°17'0 0.0
2017-Oct-11 18:59N 36°48' W 076°17'0 0.0
2017-Oct-11 18:30N 36°48' W 076°17'0 0.0
2017-Oct-11 17:58N 36°48' W 076°17'0 0.0
2017-Oct-11 17:30N 36°48' W 076°17'0 0.0
2017-Oct-11 17:00N 36°49' W 076°17'0 0.0
2017-Oct-10 23:58N 36°48' W 076°17'0 0.0
2017-Oct-10 23:30N 36°48' W 076°17'0 0.0
2017-Oct-10 23:00N 36°49' W 076°17'0 0.0
2017-Oct-10 22:29N 36°49' W 076°17'0 0.0
2017-Oct-10 22:00N 36°48' W 076°17'0 0.0
2017-Oct-10 21:30N 36°48' W 076°17'0 0.0
2017-Oct-10 21:00N 36°48' W 076°17'0 0.0
2017-Oct-10 20:30N 36°48' W 076°17'0 0.0
2017-Oct-10 20:00N 36°48' W 076°17'0 0.0
2017-Oct-10 19:30N 36°48' W 076°17'0 0.0
2017-Oct-10 19:00N 36°48' W 076°17'0 0.0
2017-Oct-10 18:30N 36°48' W 076°17'0 0.0
2017-Oct-10 17:59N 36°48' W 076°17'0 0.0
2017-Oct-10 17:30N 36°48' W 076°17'2 0.1
2017-Oct-09 04:37N 36°47' W 076°18'0 0.1
2017-Oct-09 04:29N 36°47' W 076°18'0 0.9
2017-Oct-09 03:59N 36°46' W 076°18'2 3.2
2017-Oct-09 03:30N 36°45' W 076°18'  

Dump ship's entire track history